Главная страница
METAR-TAF:

METAR-TAF

Аэропорты :

Каир, Египет

широта: 30-08N, долгота: 031-24E, высота над уровнем моря: 64 м

Текущие метеонаблюдения

Эта сводка был подготовлена 18 минут назад, в 11:30 UTC
Ветер 10 Узел от северный
Температура 36°C
Влажность 22%
Давление 1015 hPa
Видимость 10 км и более
Нет облачности ниже 1500 м, и нет кучево-дождевой облачности

METAR: HECA 211130Z 36010KT CAVOK 36/11 Q1015 NOSIG

Время: 13:48 (11:48 UTC)

Прогноз

Эта сводка был подготовлена 48 минут назад, в 11:00 UTC
Прогноз действительный с 21-го 12 UTC до 22-го 18 UTC
Ветер 10 Узел от северо-восточный
Видимость 10 км и более
Нет облачности ниже 1500 м, и нет кучево-дождевой облачности

TAF: HECA 211100Z 2112/2218 05010KT CAVOK

Метеонаблюдения и прогнозы для более 4000 аэропортов (сводки METAR и TAF).

Имеющиеся станции представлены на карте желтыми и красными точками.

Чтобы увидеть название станции, наведите на нее мышь.

Затем щелкните, чтобы увидеть метеонаблюдения и метеопрогнозы.

Управление картой: чтобы увеличить масштаб, щелкните зеленые кнопки с черным крестиком; чтобы уменьшить масштаб, щелкните зеленую кнопку с тире; для просмотра соседних карт щелкайте зеленые стрелки.


METAR-TAF: